Mount Perry, OH (43760)

4:04 PM EDT on May 24, 2015 (GMT -0400)
OHDOT | | Change Station
CLOSE
Current Station
Personal Weather Station
Location: Brownsville, OH
Elevation: 904 ft
Nearby Weather Stations

Elev 904 ft 39.94 °N, 82.24 °W | Updated 24 minutes ago

Clear
Clear
80 °F
Feels Like 80 °F
N
2
Wind Variable Wind from ESE
Gusts 7.0 mph

Today
High -- | Low -- °F
--% Chance of Precip.
Yesterday
High -- | Low -- °F
Precip. -- in
6:06 AM 8:44 PM
Waxing Crescent, 42% visible
Pressure 30.22 in
Visibility 10.0 miles
Clouds Few 7000 ft
Heat Index 80 °F
Dew Point 53 °F
Humidity 39%
Rainfall in
Snow Depth Not available.
UV 8 out of 12
Pollen 9.40 out of 12
Air Quality Not available.
Flu Activity Local Activity
METAR KZZV 241953Z AUTO 14007KT 10SM FEW070 27/10 A3023 RMK AO2 SLP231 T02720100

More Conditions Fewer Conditions

Pressure 30.22 in
Visibility 10.0 miles
Clouds Few 7000 ft
Heat Index 80 °F
Dew Point 53 °F
Humidity 39%
Rainfall in
Snow Depth Not available.
UV 8 out of 12
Pollen 9.40 out of 12
Air Quality Not available.
Flu Activity Local Activity
METAR KZZV 241953Z AUTO 14007KT 10SM FEW070 27/10 A3023 RMK AO2 SLP231 T02720100

More Conditions Fewer Conditions

10-Day Weather Forecast

Almanac

Astronomy

May. 24, 2015 Rise Set
Actual Time
Civil Twilight
Nautical Twilight
Astronomical Twilight
Moon
Length of Visible Light
Length of Day
Tomorrow will be .
, % of the Moon is Illuminated

Today's Extremes

State Highs State Lows

Community

WunderPhotos

Upload Photos

1,823,850 photos uploaded!

WunderBlogs® & News

Nearby

Air Quality

  Air Quality AQ Index Pollutant
Not available.

Snow Depth

Station Depth Elevation

Earthquake Activity

City Distance Mag. Time & Date
Minimum magnitude displayed is 2.5.

Coastal Water Temperatures

Place Temperature

Stations

Nearby Weather Stations

Station Location Temp. Windchill Dew Point Humidity Wind Precip. Elev Updated Type